Time;durP1;ratioP1;P1;durP2;ratioP2;P2;SDS_P1;SDS_P2;PMS_P1;PMS_P2;Temp;Humidity;BMP_temperature;BMP_pressure;BME280_temperature;BME280_humidity;BME280_pressure;Samples;Min_cycle;Max_cycle;Signal;HPM_P1;HPM_P2
2022/06/19 00:01:43;;;;;;;;;;;23.80;92.90;;;;;;5065435;28;20302;-69
2022/06/19 00:04:10;;;;;;;;;;;23.80;93.00;;;;;;5085401;28;19920;-69
2022/06/19 00:06:37;;;;;;;;;;;23.80;92.90;;;;;;5084847;28;19948;-69
2022/06/19 00:09:04;;;;;;;;;;;23.90;93.00;;;;;;5085693;28;20175;-71
2022/06/19 00:11:33;;;;;;;;;;;23.90;93.00;;;;;;5085596;28;19987;-72
2022/06/19 00:14:01;;;;;;;;;;;23.90;92.90;;;;;;5085117;28;20115;-71
2022/06/19 00:16:28;;;;;;;;;;;23.90;92.90;;;;;;5084182;28;19952;-71
2022/06/19 00:18:55;;;;;;;;;;;23.90;93.10;;;;;;5085190;28;19928;-72
2022/06/19 00:21:22;;;;;;;;;;;23.90;93.10;;;;;;5084921;28;20227;-71
2022/06/19 00:23:48;;;;;;;;;;;23.90;93.30;;;;;;5084808;28;20265;-71
2022/06/19 00:26:15;;;;;;;;;;;23.90;93.30;;;;;;5084116;28;20231;-71
2022/06/19 00:28:44;;;;;;;;;;;23.80;93.40;;;;;;5084587;28;19959;-71
2022/06/19 00:31:12;;;;;;;;;;;23.80;93.40;;;;;;5084806;28;19952;-72
2022/06/19 00:33:39;;;;;;;;;;;23.80;93.50;;;;;;5084639;28;19955;-71
2022/06/19 00:36:06;;;;;;;;;;;23.80;93.50;;;;;;5084029;28;19987;-72
2022/06/19 00:38:33;;;;;;;;;;;23.80;93.60;;;;;;5072611;28;20228;-71
2022/06/19 00:41:00;;;;;;;;;;;23.70;93.70;;;;;;5064586;28;19955;-71
2022/06/19 00:43:27;;;;;;;;;;;23.70;93.90;;;;;;5081650;28;19983;-72
2022/06/19 00:45:55;;;;;;;;;;;23.60;93.90;;;;;;5083737;28;19948;-71
2022/06/19 00:48:27;;;;;;;;;;;23.60;93.90;;;;;;5084352;28;19921;-71
2022/06/19 00:50:54;;;;;;;;;;;23.60;94.00;;;;;;5084163;28;19920;-71
2022/06/19 00:53:23;;;;;;;;;;;23.60;94.00;;;;;;5084259;28;19959;-71
2022/06/19 00:55:50;;;;;;;;;;;23.50;93.90;;;;;;5080985;28;19920;-72
2022/06/19 00:58:20;;;;;;;;;;;23.50;93.80;;;;;;5084452;28;19928;-71
2022/06/19 01:00:48;;;;;;;;;;;23.50;93.80;;;;;;5084381;28;20136;-71
2022/06/19 01:03:16;;;;;;;;;;;23.50;93.80;;;;;;5083803;28;19956;-71
2022/06/19 01:05:44;;;;;;;;;;;23.50;93.80;;;;;;5074770;28;19927;-71
2022/06/19 01:08:11;;;;;;;;;;;23.50;93.90;;;;;;5083987;28;19966;-71
2022/06/19 01:10:40;;;;;;;;;;;23.50;93.80;;;;;;5083886;28;20121;-71
2022/06/19 01:13:07;;;;;;;;;;;23.50;93.80;;;;;;5084099;28;19928;-72
2022/06/19 01:15:34;;;;;;;;;;;23.50;93.80;;;;;;5083429;28;19964;-71
2022/06/19 01:18:03;;;;;;;;;;;23.40;93.80;;;;;;5083750;28;19959;-71
2022/06/19 01:20:32;;;;;;;;;;;23.30;93.70;;;;;;5083721;28;19921;-71
2022/06/19 01:23:06;;;;;;;;;;;23.30;93.70;;;;;;5083549;28;19952;-71
2022/06/19 01:25:35;;;;;;;;;;;23.30;93.50;;;;;;5083216;28;19951;-71
2022/06/19 01:30:50;;;;;;;;;;;23.30;93.60;;;;;;5083727;28;19924;-71
2022/06/19 01:33:18;;;;;;;;;;;23.30;93.50;;;;;;5083602;28;19927;-71
2022/06/19 01:35:47;;;;;;;;;;;23.30;93.50;;;;;;5086532;28;19959;-71
2022/06/19 01:38:14;;;;;;;;;;;23.30;93.50;;;;;;5079654;28;19962;-71
2022/06/19 01:40:44;;;;;;;;;;;23.30;93.50;;;;;;5078321;28;19951;-71
2022/06/19 01:43:11;;;;;;;;;;;23.30;93.50;;;;;;5083554;28;19956;-71
2022/06/19 01:45:39;;;;;;;;;;;23.20;93.50;;;;;;5062363;22;20180;-72
2022/06/19 01:48:06;;;;;;;;;;;23.20;93.50;;;;;;5039579;28;19964;-71
2022/06/19 01:50:33;;;;;;;;;;;23.20;93.50;;;;;;5043328;28;19921;-72
2022/06/19 01:53:04;;;;;;;;;;;23.20;93.30;;;;;;5039734;28;19928;-72
2022/06/19 01:55:30;;;;;;;;;;;23.20;93.30;;;;;;5023194;28;20132;-72
2022/06/19 01:58:00;;;;;;;;;;;23.20;93.40;;;;;;5023596;28;19921;-72
2022/06/19 02:00:28;;;;;;;;;;;23.20;93.30;;;;;;5022462;28;19956;-72
2022/06/19 02:02:59;;;;;;;;;;;23.20;93.30;;;;;;5028852;28;20208;-71
2022/06/19 02:05:25;;;;;;;;;;;23.20;93.30;;;;;;5042545;28;19921;-72
2022/06/19 02:07:52;;;;;;;;;;;23.10;93.30;;;;;;5042970;28;19996;-73
2022/06/19 02:10:19;;;;;;;;;;;23.10;93.30;;;;;;5043167;28;19921;-72
2022/06/19 02:12:46;;;;;;;;;;;23.10;93.40;;;;;;5043104;28;19921;-72
2022/06/19 02:15:14;;;;;;;;;;;23.10;93.40;;;;;;5045141;28;19952;-73
2022/06/19 02:17:43;;;;;;;;;;;23.10;93.60;;;;;;5047354;28;19921;-71
2022/06/19 02:20:11;;;;;;;;;;;23.10;93.80;;;;;;5047341;28;19921;-72
2022/06/19 02:22:37;;;;;;;;;;;23.00;93.80;;;;;;5047137;28;19921;-72
2022/06/19 02:25:05;;;;;;;;;;;23.00;93.80;;;;;;5046876;28;20231;-72
2022/06/19 02:27:32;;;;;;;;;;;22.90;93.90;;;;;;5046305;28;19949;-72
2022/06/19 02:30:01;;;;;;;;;;;22.90;94.10;;;;;;5047014;28;19952;-73
2022/06/19 02:32:32;;;;;;;;;;;22.90;94.10;;;;;;5047007;28;20274;-71
2022/06/19 02:34:58;;;;;;;;;;;22.80;94.20;;;;;;5046830;28;19925;-72
2022/06/19 02:37:26;;;;;;;;;;;22.70;94.40;;;;;;5046257;28;19921;-73
2022/06/19 02:39:56;;;;;;;;;;;22.60;94.50;;;;;;5038665;28;20228;-72
2022/06/19 02:42:31;;;;;;;;;;;22.60;94.80;;;;;;5026973;28;19928;-72
2022/06/19 02:45:01;;;;;;;;;;;22.60;94.80;;;;;;5026780;28;19921;-71
2022/06/19 02:47:31;;;;;;;;;;;22.50;95.10;;;;;;5035526;28;19964;-72
2022/06/19 02:49:57;;;;;;;;;;;22.40;95.30;;;;;;5046618;28;19944;-72
2022/06/19 02:52:24;;;;;;;;;;;22.30;95.50;;;;;;5046937;28;19987;-72
2022/06/19 02:54:51;;;;;;;;;;;22.20;95.80;;;;;;5046338;28;19929;-72
2022/06/19 02:57:18;;;;;;;;;;;22.20;96.00;;;;;;5045944;28;20228;-72
2022/06/19 02:59:44;;;;;;;;;;;22.10;96.00;;;;;;5046501;28;19921;-72
2022/06/19 03:02:13;;;;;;;;;;;22.00;96.10;;;;;;5046469;28;19949;-72
2022/06/19 03:04:43;;;;;;;;;;;22.00;96.20;;;;;;5040900;28;20259;-72
2022/06/19 03:07:10;;;;;;;;;;;22.00;96.40;;;;;;5024468;28;19964;-72
2022/06/19 03:09:36;;;;;;;;;;;21.90;96.40;;;;;;5026514;28;19922;-71
2022/06/19 03:12:03;;;;;;;;;;;21.90;96.60;;;;;;5026448;28;19952;-72
2022/06/19 03:14:30;;;;;;;;;;;21.80;96.60;;;;;;5026441;28;19959;-72
2022/06/19 03:16:56;;;;;;;;;;;21.80;96.60;;;;;;5025757;28;19988;-71
2022/06/19 03:19:23;;;;;;;;;;;21.80;96.70;;;;;;5026232;28;19993;-72
2022/06/19 03:21:51;;;;;;;;;;;21.70;96.70;;;;;;5026442;28;19921;-72
2022/06/19 03:24:18;;;;;;;;;;;21.70;96.70;;;;;;5026277;28;19980;-72
2022/06/19 03:26:44;;;;;;;;;;;21.70;96.90;;;;;;5025697;28;19921;-72
2022/06/19 03:29:11;;;;;;;;;;;21.60;96.90;;;;;;5026052;28;20235;-73
2022/06/19 03:31:37;;;;;;;;;;;21.60;97.10;;;;;;5026088;28;19927;-72
2022/06/19 03:34:04;;;;;;;;;;;21.60;97.10;;;;;;5025924;28;19921;-72
2022/06/19 03:36:32;;;;;;;;;;;21.60;97.20;;;;;;5028371;28;19921;-72
2022/06/19 03:39:00;;;;;;;;;;;21.50;97.50;;;;;;5045119;28;19921;-72
2022/06/19 03:41:26;;;;;;;;;;;21.50;97.50;;;;;;5025809;28;19921;-72
2022/06/19 03:43:53;;;;;;;;;;;21.40;97.40;;;;;;5025844;28;20184;-72
2022/06/19 03:46:21;;;;;;;;;;;21.40;97.60;;;;;;5025049;28;19980;-72
2022/06/19 03:48:48;;;;;;;;;;;21.30;97.50;;;;;;5025923;28;20129;-71
2022/06/19 03:51:15;;;;;;;;;;;21.30;97.50;;;;;;5026213;28;19921;-72
2022/06/19 03:53:42;;;;;;;;;;;21.20;97.30;;;;;;5025500;28;19921;-72
2022/06/19 03:56:15;;;;;;;;;;;21.20;97.20;;;;;;5025119;28;19952;-72
2022/06/19 03:58:47;;;;;;;;;;;21.10;97.10;;;;;;5025690;28;19922;-71
2022/06/19 04:01:15;;;;;;;;;;;21.20;97.30;;;;;;5025745;28;19921;-72
2022/06/19 04:03:42;;;;;;;;;;;21.20;97.10;;;;;;5041900;28;19927;-71
2022/06/19 04:06:09;;;;;;;;;;;21.30;97.00;;;;;;5042460;28;19921;-72
2022/06/19 04:08:36;;;;;;;;;;;21.30;97.10;;;;;;5045229;28;19964;-72
2022/06/19 04:11:02;;;;;;;;;;;21.30;97.00;;;;;;5045254;28;19967;-72
2022/06/19 04:13:32;;;;;;;;;;;21.40;97.00;;;;;;5045228;28;20177;-72
2022/06/19 04:15:58;;;;;;;;;;;21.40;97.00;;;;;;5044149;28;19984;-72
2022/06/19 04:18:26;;;;;;;;;;;21.50;97.10;;;;;;5045267;28;19929;-72
2022/06/19 04:20:53;;;;;;;;;;;21.50;97.10;;;;;;5045046;28;19921;-72
2022/06/19 04:23:19;;;;;;;;;;;21.60;97.20;;;;;;5045066;28;19921;-72
2022/06/19 04:25:46;;;;;;;;;;;21.60;97.20;;;;;;5044245;28;19921;-72
2022/06/19 04:28:13;;;;;;;;;;;21.70;97.20;;;;;;5044631;28;20184;-72
2022/06/19 04:30:46;;;;;;;;;;;21.70;97.40;;;;;;5045212;28;20093;-72
2022/06/19 04:33:13;;;;;;;;;;;21.80;97.40;;;;;;5044790;28;19963;-71
2022/06/19 04:35:39;;;;;;;;;;;21.80;97.70;;;;;;5043798;28;19971;-72
2022/06/19 04:38:06;;;;;;;;;;;21.90;97.70;;;;;;5043861;28;19921;-73
2022/06/19 04:40:33;;;;;;;;;;;22.00;97.50;;;;;;5039354;28;20132;-72
2022/06/19 04:43:00;;;;;;;;;;;22.00;97.70;;;;;;5024847;28;19921;-72
2022/06/19 04:45:27;;;;;;;;;;;22.00;97.60;;;;;;5024000;28;19964;-71
2022/06/19 04:47:55;;;;;;;;;;;22.10;97.40;;;;;;5037304;28;19925;-72
2022/06/19 04:50:22;;;;;;;;;;;22.10;97.40;;;;;;5045145;28;19968;-72
2022/06/19 04:52:48;;;;;;;;;;;22.20;97.70;;;;;;5044469;28;19952;-72
2022/06/19 04:55:16;;;;;;;;;;;22.30;97.50;;;;;;5043680;28;20267;-72
2022/06/19 04:57:43;;;;;;;;;;;22.40;96.90;;;;;;5044645;28;20003;-72
2022/06/19 05:00:11;;;;;;;;;;;22.40;96.80;;;;;;5044402;28;19984;-71
2022/06/19 05:02:38;;;;;;;;;;;22.50;97.10;;;;;;5039919;28;19921;-72
2022/06/19 05:05:07;;;;;;;;;;;22.60;96.80;;;;;;5043818;28;19980;-72
2022/06/19 05:07:34;;;;;;;;;;;22.70;96.80;;;;;;5043671;28;19952;-72
2022/06/19 05:10:01;;;;;;;;;;;22.80;96.80;;;;;;5043905;28;20184;-72
2022/06/19 05:12:27;;;;;;;;;;;22.80;97.00;;;;;;5044146;28;19960;-73
2022/06/19 05:14:54;;;;;;;;;;;22.90;96.70;;;;;;5043902;28;19921;-73
2022/06/19 05:17:21;;;;;;;;;;;23.00;96.80;;;;;;5043413;28;19963;-73
2022/06/19 05:19:47;;;;;;;;;;;23.10;96.70;;;;;;5043919;28;19957;-72
2022/06/19 05:22:15;;;;;;;;;;;23.10;96.20;;;;;;5043811;28;19921;-71
2022/06/19 05:24:42;;;;;;;;;;;23.10;96.20;;;;;;5043554;28;19921;-71
2022/06/19 05:27:10;;;;;;;;;;;23.10;96.20;;;;;;5043401;28;20120;-72
2022/06/19 05:29:37;;;;;;;;;;;23.20;96.30;;;;;;5043686;28;19921;-72
2022/06/19 05:32:04;;;;;;;;;;;23.30;96.50;;;;;;5043980;28;19967;-72
2022/06/19 05:34:31;;;;;;;;;;;23.30;97.00;;;;;;5043531;28;20227;-72
2022/06/19 05:36:58;;;;;;;;;;;23.40;96.70;;;;;;5042836;28;20123;-72
2022/06/19 05:39:26;;;;;;;;;;;23.40;96.40;;;;;;5043432;28;19956;-72
2022/06/19 05:41:54;;;;;;;;;;;23.40;96.50;;;;;;5043429;28;19921;-72
2022/06/19 05:44:21;;;;;;;;;;;23.60;97.10;;;;;;5043448;28;20116;-72
2022/06/19 05:46:48;;;;;;;;;;;23.60;96.80;;;;;;5042728;28;19959;-72
2022/06/19 05:49:14;;;;;;;;;;;23.70;96.90;;;;;;5042657;28;19927;-73
2022/06/19 05:51:41;;;;;;;;;;;23.90;96.90;;;;;;5043239;28;19921;-72
2022/06/19 05:54:08;;;;;;;;;;;24.00;96.40;;;;;;5043557;28;19959;-73
2022/06/19 05:56:36;;;;;;;;;;;24.00;96.10;;;;;;5042743;28;19952;-73
2022/06/19 05:59:03;;;;;;;;;;;24.10;96.50;;;;;;5043241;28;19953;-72
2022/06/19 06:01:30;;;;;;;;;;;24.10;96.00;;;;;;5043371;28;19953;-72
2022/06/19 06:03:57;;;;;;;;;;;24.20;95.90;;;;;;5037429;28;20175;-72
2022/06/19 06:06:25;;;;;;;;;;;24.20;95.80;;;;;;5027946;28;19956;-72
2022/06/19 06:08:52;;;;;;;;;;;24.20;96.70;;;;;;5023758;28;20156;-72
2022/06/19 06:11:19;;;;;;;;;;;24.30;96.50;;;;;;5023470;28;19929;-73
2022/06/19 06:13:47;;;;;;;;;;;24.40;95.90;;;;;;5023311;28;19953;-72
2022/06/19 06:16:14;;;;;;;;;;;24.40;95.80;;;;;;5022788;28;19988;-71
2022/06/19 06:18:41;;;;;;;;;;;24.50;95.40;;;;;;5023252;28;20220;-73
2022/06/19 06:21:12;;;;;;;;;;;24.50;95.90;;;;;;5023641;28;19957;-71
2022/06/19 06:23:39;;;;;;;;;;;24.50;95.80;;;;;;5023656;28;20205;-72
2022/06/19 06:26:08;;;;;;;;;;;24.50;96.40;;;;;;5022693;28;20132;-72
2022/06/19 06:28:35;;;;;;;;;;;24.50;96.10;;;;;;5023079;28;19921;-73
2022/06/19 06:31:04;;;;;;;;;;;24.50;95.90;;;;;;5023274;28;19922;-73
2022/06/19 06:33:30;;;;;;;;;;;24.60;96.20;;;;;;5023067;28;19964;-72
2022/06/19 06:35:57;;;;;;;;;;;24.60;96.00;;;;;;5022572;28;19957;-72
2022/06/19 06:38:24;;;;;;;;;;;24.60;95.70;;;;;;5041591;28;19932;-73
2022/06/19 06:40:51;;;;;;;;;;;24.60;95.50;;;;;;5039929;28;20223;-72
2022/06/19 06:43:17;;;;;;;;;;;24.70;95.90;;;;;;5043101;28;19953;-73
2022/06/19 06:45:44;;;;;;;;;;;24.70;95.90;;;;;;5041821;28;19956;-72
2022/06/19 06:48:12;;;;;;;;;;;24.70;95.80;;;;;;5027379;28;19975;-73
2022/06/19 06:50:39;;;;;;;;;;;24.70;95.90;;;;;;5023330;28;19953;-73
2022/06/19 06:53:07;;;;;;;;;;;24.70;96.10;;;;;;5022966;28;19984;-72
2022/06/19 06:55:37;;;;;;;;;;;24.80;96.60;;;;;;5022252;28;19929;-73
2022/06/19 06:58:04;;;;;;;;;;;24.90;96.20;;;;;;5022970;28;19928;-72
2022/06/19 07:00:30;;;;;;;;;;;25.00;96.50;;;;;;5023669;28;19929;-71
2022/06/19 07:02:58;;;;;;;;;;;25.00;96.60;;;;;;5037026;28;19922;-72
2022/06/19 07:05:26;;;;;;;;;;;25.10;96.80;;;;;;5039348;28;19989;-72
2022/06/19 07:07:53;;;;;;;;;;;25.10;96.80;;;;;;5026400;28;20232;-72
2022/06/19 07:10:20;;;;;;;;;;;25.20;96.80;;;;;;5026537;28;20000;-73
2022/06/19 07:12:46;;;;;;;;;;;25.30;96.50;;;;;;5026346;28;19922;-72
2022/06/19 07:15:13;;;;;;;;;;;25.40;97.00;;;;;;5025803;28;20235;-72
2022/06/19 07:17:40;;;;;;;;;;;25.40;97.00;;;;;;5026397;28;19964;-72
2022/06/19 07:20:07;;;;;;;;;;;25.50;96.90;;;;;;5026706;28;20140;-73
2022/06/19 07:22:35;;;;;;;;;;;25.50;96.40;;;;;;5026542;28;20239;-72
2022/06/19 07:25:02;;;;;;;;;;;25.60;96.40;;;;;;5026165;28;19927;-72
2022/06/19 07:27:29;;;;;;;;;;;25.60;96.60;;;;;;5025510;28;20247;-72
2022/06/19 07:29:56;;;;;;;;;;;25.80;96.80;;;;;;5026052;28;20116;-72
2022/06/19 07:32:22;;;;;;;;;;;25.90;96.50;;;;;;5026287;28;19922;-73
2022/06/19 07:34:49;;;;;;;;;;;26.00;96.40;;;;;;5025898;28;19952;-72
2022/06/19 07:37:16;;;;;;;;;;;26.00;96.00;;;;;;5034753;28;20232;-72
2022/06/19 07:39:44;;;;;;;;;;;26.10;96.20;;;;;;5045597;28;19928;-72
2022/06/19 07:42:11;;;;;;;;;;;26.20;95.80;;;;;;5045579;28;20177;-73
2022/06/19 07:44:37;;;;;;;;;;;26.30;95.60;;;;;;5061480;22;20120;-70
2022/06/19 07:52:33;;;;;;;;;;;26.50;96.10;;;;;;5064855;28;20119;-69
2022/06/19 07:55:01;;;;;;;;;;;26.70;95.90;;;;;;5061335;28;20177;-71
2022/06/19 07:57:28;;;;;;;;;;;26.80;95.60;;;;;;5045002;28;19959;-70
2022/06/19 07:59:55;;;;;;;;;;;27.00;95.20;;;;;;5045952;28;20172;-70
2022/06/19 08:02:24;;;;;;;;;;;27.10;95.00;;;;;;5043054;28;19991;-69
2022/06/19 08:04:50;;;;;;;;;;;27.20;94.70;;;;;;5061054;28;19992;-70
2022/06/19 08:07:17;;;;;;;;;;;27.30;95.30;;;;;;5062404;28;19921;-70
2022/06/19 08:09:44;;;;;;;;;;;27.40;95.00;;;;;;5065258;28;19936;-69
2022/06/19 08:12:13;;;;;;;;;;;27.60;94.80;;;;;;5061935;28;19920;-70
2022/06/19 08:14:39;;;;;;;;;;;27.70;94.40;;;;;;5065076;28;19980;-71
2022/06/19 08:17:06;;;;;;;;;;;27.90;93.70;;;;;;5064475;28;19956;-70
2022/06/19 08:19:33;;;;;;;;;;;28.10;93.40;;;;;;5065349;28;19944;-70
2022/06/19 08:22:00;;;;;;;;;;;28.20;92.90;;;;;;5065198;28;19952;-70
2022/06/19 08:24:26;;;;;;;;;;;28.40;93.20;;;;;;5064747;28;20183;-70
2022/06/19 08:26:55;;;;;;;;;;;28.40;93.70;;;;;;5064278;28;20204;-70
2022/06/19 08:29:23;;;;;;;;;;;28.60;93.70;;;;;;5064995;28;19928;-69
2022/06/19 08:31:49;;;;;;;;;;;28.80;92.80;;;;;;5064783;28;19956;-70
2022/06/19 08:34:16;;;;;;;;;;;28.80;92.50;;;;;;5064731;28;19928;-70
2022/06/19 08:36:43;;;;;;;;;;;28.90;92.30;;;;;;5058958;28;19928;-70
2022/06/19 08:39:11;;;;;;;;;;;29.10;92.20;;;;;;5054890;28;19956;-70
2022/06/19 08:41:42;;;;;;;;;;;29.20;91.70;;;;;;5062613;28;19956;-70
2022/06/19 08:44:17;;;;;;;;;;;29.30;91.60;;;;;;5064691;28;20163;-69
2022/06/19 08:46:49;;;;;;;;;;;29.40;92.00;;;;;;5057215;28;19922;-70
2022/06/19 08:49:34;;;;;;;;;;;29.50;90.70;;;;;;5025025;28;19972;-70
2022/06/19 08:52:05;;;;;;;;;;;29.70;90.60;;;;;;5024707;28;19921;-69
2022/06/19 08:54:37;;;;;;;;;;;29.80;91.10;;;;;;5024676;28;19928;-70
2022/06/19 08:57:08;;;;;;;;;;;29.90;91.20;;;;;;5024108;28;19953;-70
2022/06/19 08:59:40;;;;;;;;;;;30.10;90.60;;;;;;5024624;28;19928;-70
2022/06/19 09:02:16;;;;;;;;;;;30.10;90.70;;;;;;5027769;28;20232;-69
2022/06/19 09:07:37;;;;;;;;;;;30.30;87.70;;;;;;5063546;28;19923;-70
2022/06/19 09:10:13;;;;;;;;;;;30.50;86.80;;;;;;5063821;28;19941;-71
2022/06/19 09:12:56;;;;;;;;;;;30.60;85.40;;;;;;5049223;28;19925;-70
2022/06/19 09:15:26;;;;;;;;;;;30.60;85.40;;;;;;5031372;28;19964;-70
2022/06/19 09:17:59;;;;;;;;;;;30.70;85.00;;;;;;5043720;28;19964;-70
2022/06/19 09:20:29;;;;;;;;;;;30.70;84.90;;;;;;5029681;28;19949;-70
2022/06/19 09:23:05;;;;;;;;;;;30.80;83.50;;;;;;5024250;28;19988;-70
2022/06/19 09:25:41;;;;;;;;;;;30.80;82.60;;;;;;5020961;28;20255;-70
2022/06/19 09:28:10;;;;;;;;;;;30.90;83.50;;;;;;5031527;28;19921;-70
2022/06/19 09:30:40;;;;;;;;;;;31.00;84.10;;;;;;5040662;28;20212;-70
2022/06/19 09:33:10;;;;;;;;;;;31.00;83.80;;;;;;5043852;28;19927;-71
2022/06/19 09:35:39;;;;;;;;;;;31.10;81.90;;;;;;5043145;28;19992;-70
2022/06/19 09:38:10;;;;;;;;;;;31.20;83.60;;;;;;5043589;28;19928;-70
2022/06/19 09:40:39;;;;;;;;;;;31.20;83.40;;;;;;5041426;28;19952;-70
2022/06/19 09:43:09;;;;;;;;;;;31.30;81.70;;;;;;5043521;28;19956;-70
2022/06/19 09:45:38;;;;;;;;;;;31.40;81.10;;;;;;5042571;28;20175;-70
2022/06/19 09:48:08;;;;;;;;;;;31.50;80.30;;;;;;5029348;28;20179;-70
2022/06/19 09:50:39;;;;;;;;;;;31.60;80.60;;;;;;5023560;28;19925;-70
2022/06/19 09:53:07;;;;;;;;;;;31.60;81.10;;;;;;5022416;28;20180;-70
2022/06/19 09:55:38;;;;;;;;;;;31.70;81.20;;;;;;5022573;28;19983;-70
2022/06/19 09:58:08;;;;;;;;;;;31.80;80.10;;;;;;5023726;28;20123;-70
2022/06/19 10:00:36;;;;;;;;;;;31.80;79.60;;;;;;5023648;28;19953;-70
2022/06/19 10:03:06;;;;;;;;;;;31.80;79.60;;;;;;5038206;28;20232;-70
2022/06/19 10:05:35;;;;;;;;;;;31.80;79.40;;;;;;5062495;28;20123;-70
2022/06/19 10:08:06;;;;;;;;;;;31.80;79.00;;;;;;5062912;28;19932;-70
2022/06/19 10:10:35;;;;;;;;;;;31.90;78.50;;;;;;5063392;28;20007;-70
2022/06/19 10:13:05;;;;;;;;;;;32.00;78.20;;;;;;5052920;28;19975;-70
2022/06/19 10:15:35;;;;;;;;;;;32.10;77.80;;;;;;5062411;28;20120;-70
2022/06/19 10:18:05;;;;;;;;;;;32.20;76.30;;;;;;5063170;28;19952;-70
2022/06/19 10:20:37;;;;;;;;;;;32.30;76.70;;;;;;5045616;28;19922;-70
2022/06/19 10:23:10;;;;;;;;;;;32.20;76.70;;;;;;5042960;28;19948;-70
2022/06/19 10:25:55;;;;;;;;;;;32.30;76.90;;;;;;5039962;28;19952;-70
2022/06/19 10:28:33;;;;;;;;;;;32.40;77.10;;;;;;5036059;28;19925;-70
2022/06/19 10:31:06;;;;;;;;;;;32.50;75.60;;;;;;5043040;28;19953;-70
2022/06/19 10:33:41;;;;;;;;;;;32.70;75.30;;;;;;5043285;28;19948;-71
2022/06/19 10:36:14;;;;;;;;;;;32.80;75.60;;;;;;5044244;28;20251;-70
2022/06/19 10:38:47;;;;;;;;;;;32.90;73.60;;;;;;5045694;28;19953;-71
2022/06/19 10:44:02;;;;;;;;;;;33.00;74.50;;;;;;5045745;28;19925;-70
2022/06/19 10:46:31;;;;;;;;;;;33.10;74.90;;;;;;5044546;28;20111;-70
2022/06/19 10:49:02;;;;;;;;;;;33.20;74.50;;;;;;5027000;28;19956;-70
2022/06/19 10:51:36;;;;;;;;;;;33.30;74.00;;;;;;5024601;28;20201;-70
2022/06/19 10:54:13;;;;;;;;;;;33.30;73.70;;;;;;5025586;28;19992;-70
2022/06/19 10:56:47;;;;;;;;;;;33.40;74.70;;;;;;5025944;28;19956;-70
2022/06/19 10:59:14;;;;;;;;;;;33.50;74.50;;;;;;5026727;28;20183;-69
2022/06/19 11:04:44;;;;;;;;;;;33.70;72.50;;;;;;4939593;29;19919;-70
2022/06/19 11:07:12;;;;;;;;;;;33.70;73.60;;;;;;5026480;28;20004;-70
2022/06/19 11:09:43;;;;;;;;;;;33.70;72.90;;;;;;5046375;28;19921;-70
2022/06/19 11:12:16;;;;;;;;;;;33.80;72.90;;;;;;5045874;28;19921;-70
2022/06/19 11:14:45;;;;;;;;;;;33.80;72.40;;;;;;5066221;28;20020;-70
2022/06/19 11:17:14;;;;;;;;;;;34.00;73.90;;;;;;5065583;28;19963;-71
2022/06/19 11:19:42;;;;;;;;;;;34.20;72.70;;;;;;5055910;28;19984;-70
2022/06/19 11:22:20;;;;;;;;;;;34.30;72.50;;;;;;5046284;28;19928;-70
2022/06/19 11:24:48;;;;;;;;;;;34.50;72.00;;;;;;5045850;28;19964;-70
2022/06/19 11:27:17;;;;;;;;;;;34.60;70.40;;;;;;5045350;28;19952;-70
2022/06/19 11:29:44;;;;;;;;;;;34.50;70.60;;;;;;5045762;28;19953;-70
2022/06/19 11:32:13;;;;;;;;;;;34.60;70.70;;;;;;5045882;28;19940;-70
2022/06/19 11:34:48;;;;;;;;;;;34.70;71.60;;;;;;5045829;28;19921;-70
2022/06/19 11:37:20;;;;;;;;;;;34.90;71.70;;;;;;5045347;28;19928;-70
2022/06/19 11:39:50;;;;;;;;;;;35.00;70.60;;;;;;5045799;28;20228;-70
2022/06/19 11:42:25;;;;;;;;;;;34.90;71.10;;;;;;5046055;28;19928;-70
2022/06/19 11:44:53;;;;;;;;;;;35.10;69.80;;;;;;5045535;28;19973;-70
2022/06/19 11:47:25;;;;;;;;;;;35.10;70.70;;;;;;5043723;28;19959;-70
2022/06/19 11:50:07;;;;;;;;;;;35.00;68.80;;;;;;5045539;28;19928;-70
2022/06/19 11:52:34;;;;;;;;;;;35.10;70.30;;;;;;5043601;28;19927;-70
2022/06/19 11:55:02;;;;;;;;;;;35.10;68.60;;;;;;5045552;28;19959;-71
2022/06/19 11:57:30;;;;;;;;;;;35.10;71.10;;;;;;5044902;28;19963;-71
2022/06/19 11:59:58;;;;;;;;;;;35.20;68.90;;;;;;5045716;28;19963;-70
2022/06/19 12:02:26;;;;;;;;;;;35.30;70.40;;;;;;5045098;28;20235;-71
2022/06/19 12:04:54;;;;;;;;;;;35.50;69.10;;;;;;5061389;28;19921;-70
2022/06/19 12:07:22;;;;;;;;;;;35.70;68.10;;;;;;5024951;28;19933;-70
2022/06/19 12:09:54;;;;;;;;;;;35.70;66.70;;;;;;5025286;28;19960;-71
2022/06/19 12:12:22;;;;;;;;;;;35.80;67.40;;;;;;5050520;28;19959;-71
2022/06/19 12:14:54;;;;;;;;;;;35.90;66.40;;;;;;5062820;28;19991;-70
2022/06/19 12:17:22;;;;;;;;;;;35.90;65.70;;;;;;5064604;28;19995;-69
2022/06/19 12:19:52;;;;;;;;;;;35.90;65.90;;;;;;5053474;28;19955;-70
2022/06/19 12:22:20;;;;;;;;;;;35.90;66.70;;;;;;5045011;28;20224;-70
2022/06/19 12:24:49;;;;;;;;;;;36.00;66.30;;;;;;5042454;28;19959;-70
2022/06/19 12:27:18;;;;;;;;;;;36.00;66.30;;;;;;5044525;28;19959;-71
2022/06/19 12:29:48;;;;;;;;;;;36.00;66.50;;;;;;5044582;28;19921;-71
2022/06/19 12:32:20;;;;;;;;;;;36.10;65.90;;;;;;5045058;28;19959;-70
2022/06/19 12:34:49;;;;;;;;;;;36.00;66.00;;;;;;5044306;28;19980;-70
2022/06/19 12:37:16;;;;;;;;;;;36.00;66.00;;;;;;5044537;28;19944;-70
2022/06/19 12:39:44;;;;;;;;;;;36.10;65.30;;;;;;5044804;28;19959;-70
2022/06/19 12:42:15;;;;;;;;;;;36.30;65.60;;;;;;5044327;28;19967;-71
2022/06/19 12:44:49;;;;;;;;;;;36.40;64.50;;;;;;5042288;28;19961;-71
2022/06/19 12:47:19;;;;;;;;;;;36.60;65.60;;;;;;5043936;28;20105;-70
2022/06/19 12:50:03;;;;;;;;;;;36.60;65.20;;;;;;5044826;28;19921;-70
2022/06/19 12:52:33;;;;;;;;;;;36.80;64.20;;;;;;5044281;28;19928;-70
2022/06/19 12:55:05;;;;;;;;;;;37.00;63.60;;;;;;5041330;28;19929;-70
2022/06/19 12:57:39;;;;;;;;;;;37.00;63.30;;;;;;5043974;28;20098;-70
2022/06/19 13:00:19;;;;;;;;;;;37.00;62.60;;;;;;5044023;28;19956;-70
2022/06/19 13:02:57;;;;;;;;;;;37.00;63.80;;;;;;5044124;28;19928;-70
2022/06/19 13:05:30;;;;;;;;;;;37.20;64.30;;;;;;5031483;28;19963;-71
2022/06/19 13:08:03;;;;;;;;;;;37.20;63.10;;;;;;5064028;28;20120;-71
2022/06/19 13:10:42;;;;;;;;;;;37.30;63.10;;;;;;5064081;28;19921;-71
2022/06/19 13:13:29;;;;;;;;;;;37.40;62.30;;;;;;5054035;28;19959;-71
2022/06/19 13:15:59;;;;;;;;;;;37.50;63.10;;;;;;5063210;28;20093;-71
2022/06/19 13:18:35;;;;;;;;;;;37.80;63.40;;;;;;5063959;28;19956;-71
2022/06/19 13:21:04;;;;;;;;;;;37.90;61.60;;;;;;5024285;28;19952;-71
2022/06/19 13:23:33;;;;;;;;;;;37.90;61.60;;;;;;5024620;28;19921;-71
2022/06/19 13:26:06;;;;;;;;;;;37.80;62.10;;;;;;5023272;28;20266;-70
2022/06/19 13:28:41;;;;;;;;;;;37.80;61.50;;;;;;5024298;28;20187;-70
2022/06/19 13:31:12;;;;;;;;;;;37.80;63.10;;;;;;5021065;28;19930;-71
2022/06/19 13:33:44;;;;;;;;;;;37.80;60.80;;;;;;5024003;28;19968;-70
2022/06/19 13:36:15;;;;;;;;;;;37.80;61.90;;;;;;5023045;28;20124;-70
2022/06/19 13:38:55;;;;;;;;;;;37.60;62.10;;;;;;5023484;28;20249;-71
2022/06/19 13:41:30;;;;;;;;;;;37.50;62.10;;;;;;5021549;28;19936;-71
2022/06/19 13:44:04;;;;;;;;;;;37.60;63.90;;;;;;5024179;28;19984;-70
2022/06/19 13:46:37;;;;;;;;;;;37.80;63.40;;;;;;5024470;28;19984;-71
2022/06/19 13:49:10;;;;;;;;;;;37.90;62.90;;;;;;5043323;28;20267;-70
2022/06/19 13:51:39;;;;;;;;;;;38.10;62.60;;;;;;5041083;28;19963;-71
2022/06/19 13:54:11;;;;;;;;;;;38.20;62.40;;;;;;5042763;28;19928;-71
2022/06/19 13:56:41;;;;;;;;;;;38.20;60.80;;;;;;5043094;28;19921;-70
2022/06/19 13:59:20;;;;;;;;;;;38.10;61.90;;;;;;5043062;28;19921;-71
2022/06/19 14:01:57;;;;;;;;;;;38.20;62.40;;;;;;5043620;28;19950;-71
2022/06/19 14:04:50;;;;;;;;;;;38.30;61.90;;;;;;5055289;28;19927;-70
2022/06/19 14:07:24;;;;;;;;;;;38.60;62.10;;;;;;5059862;28;19959;-71
2022/06/19 14:09:55;;;;;;;;;;;38.60;60.30;;;;;;5062815;28;19959;-70
2022/06/19 14:12:25;;;;;;;;;;;38.50;60.90;;;;;;5061015;28;19956;-71
2022/06/19 14:14:55;;;;;;;;;;;38.50;60.40;;;;;;5062741;28;19921;-71
2022/06/19 14:17:27;;;;;;;;;;;38.60;60.60;;;;;;5062644;28;20094;-71
2022/06/19 14:20:00;;;;;;;;;;;38.60;61.30;;;;;;5050702;28;19984;-70
2022/06/19 14:22:29;;;;;;;;;;;38.30;61.90;;;;;;5043671;28;19953;-71
2022/06/19 14:25:02;;;;;;;;;;;38.30;61.50;;;;;;5042946;28;19984;-71
2022/06/19 14:27:40;;;;;;;;;;;38.40;61.00;;;;;;5042684;28;19953;-70
2022/06/19 14:30:11;;;;;;;;;;;38.50;60.90;;;;;;5042982;28;19928;-70
2022/06/19 14:32:53;;;;;;;;;;;38.50;60.20;;;;;;5043215;28;19921;-70
2022/06/19 14:35:22;;;;;;;;;;;38.40;61.00;;;;;;5042354;28;19921;-69
2022/06/19 14:37:50;;;;;;;;;;;38.30;60.20;;;;;;5043110;28;19993;-71
2022/06/19 14:40:38;;;;;;;;;;;38.40;60.10;;;;;;5042919;28;19921;-71
2022/06/19 14:43:14;;;;;;;;;;;38.40;60.10;;;;;;5033552;28;19956;-71
2022/06/19 14:45:44;;;;;;;;;;;38.40;61.00;;;;;;5042093;28;19996;-71